createdAt,value
2019-03-28T00:01:50.288Z,8.00
2019-03-28T00:04:19.283Z,8.00
2019-03-28T00:06:48.094Z,8.10
2019-03-28T00:09:16.684Z,8.00
2019-03-28T00:11:45.396Z,8.00
2019-03-28T00:14:14.105Z,8.00
2019-03-28T00:16:42.684Z,8.00
2019-03-28T00:19:11.301Z,8.00
2019-03-28T00:21:39.883Z,8.00
2019-03-28T00:24:13.160Z,8.00
2019-03-28T00:26:41.767Z,8.00
2019-03-28T00:29:10.644Z,8.00
2019-03-28T00:31:39.268Z,8.00
2019-03-28T00:34:07.860Z,8.00
2019-03-28T00:36:36.455Z,8.00
2019-03-28T00:39:06.710Z,8.00
2019-03-28T00:41:35.366Z,8.00
2019-03-28T00:44:04.128Z,8.00
2019-03-28T00:46:32.747Z,8.00
2019-03-28T00:49:01.395Z,8.00
2019-03-28T00:51:30.085Z,8.00
2019-03-28T00:53:58.775Z,8.10
2019-03-28T00:56:27.429Z,8.10
2019-03-28T00:58:56.183Z,8.10
2019-03-28T01:01:24.813Z,8.10
2019-03-28T01:03:53.480Z,8.10
2019-03-28T01:06:22.097Z,8.10
2019-03-28T01:08:50.767Z,8.10
2019-03-28T01:11:19.374Z,8.10
2019-03-28T01:13:47.979Z,8.10
2019-03-28T01:16:16.556Z,8.10
2019-03-28T01:18:45.353Z,8.10
2019-03-28T01:21:14.083Z,8.10
2019-03-28T01:23:42.711Z,8.00
2019-03-28T01:26:11.312Z,8.10
2019-03-28T01:28:39.898Z,8.00
2019-03-28T01:31:08.506Z,8.10
2019-03-28T01:33:37.158Z,8.10
2019-03-28T01:36:05.740Z,8.10
2019-03-28T01:38:34.363Z,8.10
2019-03-28T01:41:02.948Z,8.10
2019-03-28T01:43:31.544Z,8.00
2019-03-28T01:46:00.162Z,8.00
2019-03-28T01:48:28.756Z,8.00
2019-03-28T01:50:57.670Z,7.90
2019-03-28T01:53:26.266Z,7.90
2019-03-28T01:55:54.839Z,7.90
2019-03-28T01:58:23.463Z,7.90
2019-03-28T02:00:52.112Z,7.80
2019-03-28T02:03:20.767Z,7.80
2019-03-28T02:05:49.388Z,7.80
2019-03-28T02:08:17.967Z,7.70
2019-03-28T02:10:46.582Z,7.80
2019-03-28T02:13:15.205Z,7.70
2019-03-28T02:15:43.784Z,7.70
2019-03-28T02:18:12.487Z,7.70
2019-03-28T02:20:41.302Z,7.70
2019-03-28T02:23:10.475Z,7.70
2019-03-28T02:25:39.270Z,7.70
2019-03-28T02:28:07.852Z,7.70
2019-03-28T02:30:36.543Z,7.70
2019-03-28T02:33:05.151Z,7.70
2019-03-28T02:35:33.805Z,7.70
2019-03-28T02:38:02.410Z,7.70
2019-03-28T02:40:31.005Z,7.70
2019-03-28T02:42:59.597Z,7.70
2019-03-28T02:45:29.129Z,7.70
2019-03-28T02:47:58.489Z,7.70
2019-03-28T02:50:27.090Z,7.70
2019-03-28T02:52:55.704Z,7.70
2019-03-28T02:55:24.378Z,7.70
2019-03-28T02:57:53.044Z,7.80
2019-03-28T03:00:21.883Z,7.80
2019-03-28T03:02:50.510Z,7.70
2019-03-28T03:05:19.081Z,7.70
2019-03-28T03:07:47.673Z,7.70
2019-03-28T03:10:17.528Z,7.70
2019-03-28T03:12:46.609Z,7.70
2019-03-28T03:15:15.702Z,7.70
2019-03-28T03:17:44.375Z,7.70
2019-03-28T03:20:13.213Z,7.60
2019-03-28T03:22:41.819Z,7.70
2019-03-28T03:25:10.817Z,7.70
2019-03-28T03:27:39.396Z,7.70
2019-03-28T03:30:09.313Z,7.70
2019-03-28T03:32:38.185Z,7.80
2019-03-28T03:35:07.208Z,7.80
2019-03-28T03:37:35.889Z,7.80
2019-03-28T03:40:09.517Z,7.70
2019-03-28T03:42:38.107Z,7.70
2019-03-28T03:45:09.355Z,7.70
2019-03-28T03:47:38.411Z,7.70
2019-03-28T03:50:09.007Z,7.70
2019-03-28T03:52:37.988Z,7.80
2019-03-28T03:55:08.401Z,7.70
2019-03-28T03:57:37.425Z,7.70
2019-03-28T04:00:07.924Z,7.70
2019-03-28T04:02:36.658Z,7.70
2019-03-28T04:05:06.583Z,7.70
2019-03-28T04:07:35.347Z,7.70
2019-03-28T04:10:05.191Z,7.70
2019-03-28T04:12:33.808Z,7.70
2019-03-28T04:15:02.384Z,7.70
2019-03-28T04:17:31.000Z,7.70
2019-03-28T04:19:59.571Z,7.80
2019-03-28T04:22:28.545Z,7.70
2019-03-28T04:24:57.753Z,7.70
2019-03-28T04:27:26.360Z,7.80
2019-03-28T04:29:55.082Z,7.80
2019-03-28T04:32:24.096Z,7.80
2019-03-28T04:34:52.692Z,7.80
2019-03-28T04:37:21.300Z,7.70
2019-03-28T04:39:49.893Z,7.80
2019-03-28T04:42:18.492Z,7.80
2019-03-28T04:44:47.111Z,7.80
2019-03-28T04:47:15.764Z,7.80
2019-03-28T04:49:44.495Z,7.80
2019-03-28T04:52:13.178Z,7.80
2019-03-28T04:54:41.768Z,7.80
2019-03-28T04:57:10.366Z,7.80
2019-03-28T04:59:38.986Z,7.80
2019-03-28T05:02:07.592Z,7.80
2019-03-28T05:04:36.196Z,7.80
2019-03-28T05:07:04.839Z,7.80
2019-03-28T05:09:33.458Z,7.80
2019-03-28T05:12:02.056Z,7.80
2019-03-28T05:14:30.665Z,7.80
2019-03-28T05:16:59.268Z,7.80
2019-03-28T05:19:27.865Z,7.80
2019-03-28T05:21:56.520Z,7.90
2019-03-28T05:24:25.586Z,7.80
2019-03-28T05:26:54.339Z,7.90
2019-03-28T05:29:22.996Z,7.90
2019-03-28T05:31:51.602Z,7.90
2019-03-28T05:34:20.508Z,7.90
2019-03-28T05:36:52.012Z,7.90
2019-03-28T05:39:19.671Z,7.90
2019-03-28T05:41:48.415Z,7.90
2019-03-28T05:44:17.032Z,7.90
2019-03-28T05:46:45.617Z,7.90
2019-03-28T05:49:14.231Z,7.90
2019-03-28T05:51:42.817Z,7.90
2019-03-28T05:54:11.412Z,8.00
2019-03-28T05:56:40.007Z,8.00
2019-03-28T05:59:11.119Z,7.90
2019-03-28T06:01:39.228Z,7.90
2019-03-28T06:04:08.370Z,8.00
2019-03-28T06:06:37.030Z,8.00
2019-03-28T06:09:07.161Z,8.00
2019-03-28T06:11:35.848Z,8.00
2019-03-28T06:14:04.568Z,8.10
2019-03-28T06:16:33.190Z,8.10
2019-03-28T06:19:01.775Z,8.10
2019-03-28T06:21:30.367Z,8.10
2019-03-28T06:23:58.982Z,8.10
2019-03-28T06:26:27.560Z,8.10
2019-03-28T06:28:56.187Z,8.10
2019-03-28T06:31:24.869Z,8.10
2019-03-28T06:33:53.459Z,8.20
2019-03-28T06:36:22.062Z,8.10
2019-03-28T06:38:50.651Z,8.20
2019-03-28T06:41:19.236Z,8.20
2019-03-28T06:43:47.859Z,8.20
2019-03-28T06:46:16.599Z,8.20
2019-03-28T06:48:45.218Z,8.20
2019-03-28T06:51:13.903Z,8.20
2019-03-28T06:53:42.488Z,8.20
2019-03-28T06:56:11.107Z,8.20
2019-03-28T06:58:39.694Z,8.30
2019-03-28T07:01:08.298Z,8.30
2019-03-28T07:03:36.894Z,8.30
2019-03-28T07:06:06.116Z,8.40
2019-03-28T07:08:34.746Z,8.40
2019-03-28T07:11:03.782Z,8.40
2019-03-28T07:13:32.377Z,8.40
2019-03-28T07:16:00.974Z,8.40
2019-03-28T07:18:29.568Z,8.50
2019-03-28T07:20:58.156Z,8.50
2019-03-28T07:23:26.855Z,8.50
2019-03-28T07:25:55.427Z,8.60
2019-03-28T07:28:24.446Z,8.60
2019-03-28T07:30:53.127Z,8.60
2019-03-28T07:33:22.109Z,8.60
2019-03-28T07:35:50.742Z,8.60
2019-03-28T07:38:19.684Z,8.60
2019-03-28T07:40:48.279Z,8.60
2019-03-28T07:43:16.880Z,8.60
2019-03-28T07:45:45.483Z,8.70
2019-03-28T07:48:14.083Z,8.70
2019-03-28T07:50:42.813Z,8.60
2019-03-28T07:53:11.336Z,8.60
2019-03-28T07:55:39.954Z,8.70
2019-03-28T07:58:09.205Z,8.80
2019-03-28T08:00:37.913Z,8.80
2019-03-28T08:03:06.516Z,8.80
2019-03-28T08:05:35.183Z,8.90
2019-03-28T08:08:03.807Z,8.90
2019-03-28T08:10:32.811Z,8.90
2019-03-28T08:13:01.392Z,9.00
2019-03-28T08:15:30.063Z,9.00
2019-03-28T08:17:58.665Z,9.00
2019-03-28T08:20:27.309Z,9.00
2019-03-28T08:22:56.229Z,9.10
2019-03-28T08:25:24.815Z,9.10
2019-03-28T08:27:53.399Z,9.10
2019-03-28T08:30:36.412Z,9.10
2019-03-28T08:33:06.179Z,9.10
2019-03-28T08:35:36.108Z,9.10
2019-03-28T08:38:09.409Z,9.00
2019-03-28T08:40:41.442Z,9.10
2019-03-28T08:43:10.339Z,9.00
2019-03-28T08:45:39.059Z,9.00
2019-03-28T08:48:07.806Z,9.10
2019-03-28T08:50:36.399Z,9.10
2019-03-28T08:53:05.558Z,9.10
2019-03-28T08:55:34.378Z,9.10
2019-03-28T08:58:03.034Z,9.10
2019-03-28T09:00:35.065Z,9.20
2019-03-28T09:03:02.521Z,9.10
2019-03-28T09:05:31.184Z,9.10
2019-03-28T09:07:59.771Z,9.10
2019-03-28T09:10:28.368Z,9.20
2019-03-28T09:12:56.972Z,9.20
2019-03-28T09:15:25.561Z,9.30
2019-03-28T09:17:54.166Z,9.30
2019-03-28T09:20:22.767Z,9.30
2019-03-28T09:22:51.403Z,9.30
2019-03-28T09:25:20.392Z,9.40
2019-03-28T09:27:51.541Z,9.40
2019-03-28T09:30:48.287Z,9.40
2019-03-28T09:33:08.042Z,9.40
2019-03-28T09:35:36.782Z,9.40
2019-03-28T09:38:05.505Z,9.50
2019-03-28T09:40:34.115Z,9.60
2019-03-28T09:43:02.691Z,9.50
2019-03-28T09:45:31.338Z,9.50
2019-03-28T09:47:59.904Z,9.60
2019-03-28T09:50:28.481Z,9.50
2019-03-28T09:52:57.536Z,9.50
2019-03-28T09:55:26.115Z,9.50
2019-03-28T09:57:54.730Z,9.60
2019-03-28T10:00:23.450Z,9.50
2019-03-28T10:02:52.108Z,9.50
2019-03-28T10:05:20.711Z,9.50
2019-03-28T10:07:49.300Z,9.50
2019-03-28T10:10:18.010Z,9.50
2019-03-28T10:12:46.622Z,9.60
2019-03-28T10:15:15.432Z,9.60
2019-03-28T10:17:44.122Z,9.60
2019-03-28T10:20:13.047Z,9.60
2019-03-28T10:22:41.648Z,9.70
2019-03-28T10:25:12.647Z,9.70
2019-03-28T10:27:41.098Z,9.70
2019-03-28T10:30:10.640Z,9.70
2019-03-28T10:32:39.403Z,9.80
2019-03-28T10:35:08.345Z,9.80
2019-03-28T10:37:37.007Z,9.90
2019-03-28T10:40:07.362Z,9.90
2019-03-28T10:42:35.931Z,9.80
2019-03-28T10:45:06.703Z,9.80
2019-03-28T10:47:35.342Z,9.80
2019-03-28T10:50:05.855Z,9.80
2019-03-28T10:52:34.461Z,9.70
2019-03-28T10:55:03.123Z,9.70
2019-03-28T10:57:32.229Z,9.80
2019-03-28T11:00:01.156Z,9.80
2019-03-28T11:02:29.721Z,9.90
2019-03-28T11:04:58.322Z,9.80
2019-03-28T11:07:26.916Z,10.00
2019-03-28T11:09:55.867Z,9.90
2019-03-28T11:12:24.546Z,9.90
2019-03-28T11:14:53.120Z,9.90
2019-03-28T11:17:21.871Z,10.00
2019-03-28T11:19:50.718Z,10.10
2019-03-28T11:22:19.299Z,10.20
2019-03-28T11:24:47.915Z,10.30
2019-03-28T11:27:16.489Z,10.50
2019-03-28T11:29:45.093Z,10.60
2019-03-28T11:32:13.779Z,10.60
2019-03-28T11:34:42.376Z,10.60
2019-03-28T11:37:24.915Z,10.60
2019-03-28T11:39:41.682Z,10.50
2019-03-28T11:42:10.327Z,10.50
2019-03-28T11:44:38.932Z,10.40
2019-03-28T11:47:07.528Z,10.40
2019-03-28T11:49:36.139Z,10.30
2019-03-28T11:52:05.370Z,10.20
2019-03-28T11:54:34.012Z,10.30
2019-03-28T11:57:02.723Z,10.40
2019-03-28T11:59:31.322Z,10.60
2019-03-28T12:02:18.366Z,10.90
2019-03-28T12:04:30.538Z,11.00
2019-03-28T12:06:59.184Z,11.20
2019-03-28T12:09:27.788Z,11.20
2019-03-28T12:11:56.395Z,11.10
2019-03-28T12:14:24.983Z,11.00
2019-03-28T12:16:53.587Z,10.80
2019-03-28T12:19:22.543Z,10.70
2019-03-28T12:21:51.114Z,10.50
2019-03-28T12:24:19.739Z,10.40
2019-03-28T12:26:48.324Z,10.40
2019-03-28T12:29:16.936Z,10.40
2019-03-28T12:31:45.530Z,10.30
2019-03-28T12:34:14.103Z,10.40
2019-03-28T12:36:42.714Z,10.40
2019-03-28T12:39:11.316Z,10.60
2019-03-28T12:41:39.916Z,10.60
2019-03-28T12:44:08.566Z,10.70
2019-03-28T12:46:37.155Z,10.70
2019-03-28T12:49:05.748Z,10.70
2019-03-28T12:51:34.371Z,10.80
2019-03-28T12:54:02.956Z,10.80
2019-03-28T12:56:31.907Z,10.80
2019-03-28T12:59:00.898Z,10.80
2019-03-28T13:01:29.474Z,10.90
2019-03-28T13:03:58.104Z,10.90
2019-03-28T13:06:26.682Z,10.80
2019-03-28T13:08:55.278Z,10.90
2019-03-28T13:11:23.893Z,10.80
2019-03-28T13:13:52.491Z,10.70
2019-03-28T13:16:21.099Z,10.60
2019-03-28T13:18:49.724Z,10.50
2019-03-28T13:21:18.309Z,10.50
2019-03-28T13:23:46.931Z,10.50
2019-03-28T13:26:15.543Z,10.40
2019-03-28T13:28:44.204Z,10.40
2019-03-28T13:31:12.787Z,10.50
2019-03-28T13:33:41.343Z,10.50
2019-03-28T13:36:09.938Z,10.60
2019-03-28T13:38:38.625Z,10.60
2019-03-28T13:41:07.314Z,10.60
2019-03-28T13:43:35.903Z,10.50
2019-03-28T13:46:04.570Z,10.50
2019-03-28T13:48:33.137Z,10.60
2019-03-28T13:51:01.714Z,10.60
2019-03-28T13:53:39.280Z,10.50
2019-03-28T13:56:00.511Z,10.40
2019-03-28T13:58:29.071Z,10.40
2019-03-28T14:00:57.682Z,10.40
2019-03-28T14:03:26.222Z,10.40
2019-03-28T14:05:54.923Z,10.30
2019-03-28T14:08:23.499Z,10.30
2019-03-28T14:10:52.056Z,10.30
2019-03-28T14:13:21.515Z,10.20
2019-03-28T14:15:50.311Z,10.20
2019-03-28T14:18:18.942Z,10.10
2019-03-28T14:20:47.522Z,10.20
2019-03-28T14:23:16.104Z,10.30
2019-03-28T14:25:44.755Z,10.20
2019-03-28T14:28:13.378Z,10.20
2019-03-28T14:30:41.947Z,10.30
2019-03-28T14:33:12.985Z,10.30
2019-03-28T14:35:40.883Z,10.30
2019-03-28T14:38:09.802Z,10.30
2019-03-28T14:40:38.450Z,10.30
2019-03-28T14:43:10.509Z,10.40
2019-03-28T14:45:37.245Z,10.50
2019-03-28T14:48:06.983Z,10.50
2019-03-28T14:50:37.855Z,10.40
2019-03-28T14:53:06.916Z,10.50
2019-03-28T14:55:36.501Z,10.40
2019-03-28T14:58:06.722Z,10.40
2019-03-28T15:00:47.251Z,10.40
2019-03-28T15:03:25.734Z,10.30
2019-03-28T15:05:47.554Z,10.30
2019-03-28T15:08:16.297Z,10.30
2019-03-28T15:10:44.882Z,10.30
2019-03-28T15:13:13.817Z,10.20
2019-03-28T15:15:42.366Z,10.10
2019-03-28T15:18:10.919Z,10.10
2019-03-28T15:20:39.517Z,10.10
2019-03-28T15:23:08.146Z,10.10
2019-03-28T15:25:36.809Z,10.10
2019-03-28T15:28:05.382Z,10.10
2019-03-28T15:30:34.403Z,10.10
2019-03-28T15:33:03.418Z,10.10
2019-03-28T15:35:31.973Z,10.10
2019-03-28T15:38:00.556Z,10.10
2019-03-28T15:40:29.133Z,10.00
2019-03-28T15:42:57.714Z,10.10
2019-03-28T15:45:26.738Z,10.00
2019-03-28T15:47:55.322Z,10.00
2019-03-28T15:50:24.295Z,10.10
2019-03-28T15:52:52.894Z,10.00
2019-03-28T15:55:21.768Z,10.00
2019-03-28T15:57:50.399Z,10.00
2019-03-28T16:00:19.694Z,10.00
2019-03-28T16:02:48.254Z,10.00
2019-03-28T16:05:16.840Z,9.90
2019-03-28T16:07:45.410Z,9.90
2019-03-28T16:10:15.242Z,9.90
2019-03-28T16:12:43.951Z,9.90
2019-03-28T16:15:13.448Z,9.80
2019-03-28T16:17:41.998Z,9.90
2019-03-28T16:20:11.639Z,9.90
2019-03-28T16:22:40.182Z,9.80
2019-03-28T16:25:09.017Z,9.80
2019-03-28T16:27:37.966Z,9.80
2019-03-28T16:30:11.595Z,9.70
2019-03-28T16:32:40.197Z,9.70
2019-03-28T16:35:08.915Z,9.70
2019-03-28T16:37:37.491Z,9.70
2019-03-28T16:40:07.104Z,9.70
2019-03-28T16:42:36.005Z,9.70
2019-03-28T16:45:06.926Z,9.70
2019-03-28T16:47:35.513Z,9.70
2019-03-28T16:50:04.963Z,9.70
2019-03-28T16:52:33.553Z,9.70
2019-03-28T16:55:02.399Z,9.70
2019-03-28T16:57:31.838Z,9.70
2019-03-28T17:00:00.430Z,9.70
2019-03-28T17:02:29.059Z,9.70
2019-03-28T17:04:57.958Z,9.70
2019-03-28T17:07:27.069Z,9.70
2019-03-28T17:09:55.910Z,9.60
2019-03-28T17:12:24.485Z,9.60
2019-03-28T17:14:53.093Z,9.60
2019-03-28T17:17:21.639Z,9.60
2019-03-28T17:19:50.309Z,9.60
2019-03-28T17:22:19.167Z,9.60
2019-03-28T17:24:47.790Z,9.60
2019-03-28T17:27:16.781Z,9.60
2019-03-28T17:29:45.363Z,9.60
2019-03-28T17:32:13.989Z,9.60
2019-03-28T17:34:45.844Z,9.60
2019-03-28T17:37:12.867Z,9.60
2019-03-28T17:39:41.451Z,9.50
2019-03-28T17:42:10.023Z,9.60
2019-03-28T17:44:38.585Z,9.60
2019-03-28T17:47:07.173Z,9.60
2019-03-28T17:49:35.726Z,9.50
2019-03-28T17:52:04.456Z,9.50
2019-03-28T17:54:33.045Z,9.50
2019-03-28T17:57:01.947Z,9.50
2019-03-28T17:59:30.521Z,9.40
2019-03-28T18:01:59.095Z,9.40
2019-03-28T18:04:27.655Z,9.40
2019-03-28T18:06:56.331Z,9.40
2019-03-28T18:09:25.120Z,9.40
2019-03-28T18:11:53.696Z,9.40
2019-03-28T18:14:22.283Z,9.40
2019-03-28T18:16:50.842Z,9.40
2019-03-28T18:19:19.430Z,9.40
2019-03-28T18:21:47.984Z,9.30
2019-03-28T18:24:16.577Z,9.30
2019-03-28T18:26:45.145Z,9.30
2019-03-28T18:29:13.710Z,9.30
2019-03-28T18:31:50.278Z,9.30
2019-03-28T18:34:12.599Z,9.30
2019-03-28T18:36:41.083Z,9.20
2019-03-28T18:39:09.672Z,9.20
2019-03-28T18:41:38.847Z,9.20
2019-03-28T18:44:07.646Z,9.20
2019-03-28T18:46:36.295Z,9.20
2019-03-28T18:49:04.962Z,9.20
2019-03-28T18:51:33.808Z,9.10
2019-03-28T18:54:02.365Z,9.10
2019-03-28T18:56:30.943Z,9.10
2019-03-28T18:58:59.616Z,9.10
2019-03-28T19:01:28.150Z,9.10
2019-03-28T19:03:56.720Z,9.10
2019-03-28T19:06:25.331Z,9.10
2019-03-28T19:08:54.038Z,9.10
2019-03-28T19:11:22.586Z,9.10
2019-03-28T19:13:51.453Z,9.10
2019-03-28T19:16:21.730Z,9.10
2019-03-28T19:18:51.746Z,9.10
2019-03-28T19:21:20.498Z,9.10
2019-03-28T19:23:49.110Z,9.10
2019-03-28T19:26:17.693Z,9.10
2019-03-28T19:28:46.626Z,9.10
2019-03-28T19:31:15.258Z,9.10
2019-03-28T19:33:43.857Z,9.00
2019-03-28T19:36:14.134Z,9.00
2019-03-28T19:38:43.049Z,8.90
2019-03-28T19:41:11.617Z,9.00
2019-03-28T19:43:40.520Z,9.00
2019-03-28T19:46:09.182Z,9.00
2019-03-28T19:48:37.741Z,9.00
2019-03-28T19:51:06.388Z,9.00
2019-03-28T19:53:35.395Z,8.90
2019-03-28T19:56:04.206Z,8.90
2019-03-28T19:58:35.108Z,8.90
2019-03-28T20:01:03.327Z,8.90
2019-03-28T20:03:31.879Z,8.90
2019-03-28T20:06:00.542Z,8.80
2019-03-28T20:08:29.170Z,8.80
2019-03-28T20:10:57.906Z,8.80
2019-03-28T20:13:26.501Z,8.80
2019-03-28T20:15:55.159Z,8.80
2019-03-28T20:18:23.758Z,8.80
2019-03-28T20:20:55.457Z,8.80
2019-03-28T20:23:22.786Z,8.80
2019-03-28T20:25:51.630Z,8.80
2019-03-28T20:28:20.207Z,8.80
2019-03-28T20:30:48.786Z,8.80
2019-03-28T20:33:17.677Z,8.80
2019-03-28T20:35:46.282Z,8.80
2019-03-28T20:38:14.876Z,8.80
2019-03-28T20:40:43.695Z,8.80
2019-03-28T20:43:12.553Z,8.80
2019-03-28T20:45:41.121Z,8.80
2019-03-28T20:48:09.762Z,8.80
2019-03-28T20:50:38.405Z,8.80
2019-03-28T20:53:07.154Z,8.80
2019-03-28T20:55:35.799Z,8.80
2019-03-28T20:58:04.438Z,8.80
2019-03-28T21:00:39.337Z,8.80
2019-03-28T21:03:08.377Z,8.80
2019-03-28T21:05:37.322Z,8.80
2019-03-28T21:08:05.939Z,8.80
2019-03-28T21:10:35.099Z,8.80
2019-03-28T21:13:04.042Z,8.80
2019-03-28T21:15:32.991Z,8.80
2019-03-28T21:18:01.574Z,8.80
2019-03-28T21:20:30.128Z,8.80
2019-03-28T21:22:59.077Z,8.80
2019-03-28T21:25:29.585Z,8.80
2019-03-28T21:27:58.696Z,8.80
2019-03-28T21:30:27.408Z,8.80
2019-03-28T21:32:57.803Z,8.90
2019-03-28T21:35:26.647Z,8.80
2019-03-28T21:37:55.243Z,8.90
2019-03-28T21:40:23.887Z,8.90
2019-03-28T21:42:52.733Z,8.90
2019-03-28T21:45:21.334Z,8.90
2019-03-28T21:47:50.807Z,8.90
2019-03-28T21:50:19.537Z,8.90
2019-03-28T21:52:48.139Z,8.90
2019-03-28T21:55:16.921Z,8.90
2019-03-28T21:57:45.978Z,8.90
2019-03-28T22:00:15.166Z,8.90
2019-03-28T22:02:44.055Z,8.90
2019-03-28T22:05:12.775Z,8.90
2019-03-28T22:07:41.379Z,8.90
2019-03-28T22:10:10.278Z,8.90
2019-03-28T22:12:39.217Z,8.90
2019-03-28T22:15:08.810Z,8.90
2019-03-28T22:17:37.694Z,8.90
2019-03-28T22:20:06.788Z,8.90
2019-03-28T22:22:35.500Z,8.90
2019-03-28T22:25:05.635Z,8.90
2019-03-28T22:27:34.186Z,8.90
2019-03-28T22:30:03.085Z,8.90
2019-03-28T22:32:31.663Z,8.90
2019-03-28T22:35:00.414Z,8.90
2019-03-28T22:37:29.118Z,8.90
2019-03-28T22:39:57.659Z,8.90
2019-03-28T22:42:26.220Z,8.80
2019-03-28T22:44:54.830Z,8.90
2019-03-28T22:47:23.473Z,8.90
2019-03-28T22:49:52.358Z,8.90
2019-03-28T22:52:20.942Z,8.80
2019-03-28T22:54:49.496Z,8.80
2019-03-28T22:57:18.094Z,8.80
2019-03-28T22:59:46.651Z,8.80
2019-03-28T23:02:15.218Z,8.80
2019-03-28T23:04:44.002Z,8.80
2019-03-28T23:07:12.567Z,8.80
2019-03-28T23:09:41.154Z,8.80
2019-03-28T23:12:09.737Z,8.70
2019-03-28T23:14:38.361Z,8.70
2019-03-28T23:17:06.953Z,8.70
2019-03-28T23:19:35.610Z,8.70
2019-03-28T23:22:04.316Z,8.70
2019-03-28T23:24:32.918Z,8.70
2019-03-28T23:27:01.475Z,8.70
2019-03-28T23:29:30.073Z,8.70
2019-03-28T23:31:58.722Z,8.70
2019-03-28T23:34:27.286Z,8.70
2019-03-28T23:36:56.630Z,8.70
2019-03-28T23:39:25.276Z,8.70
2019-03-28T23:41:53.830Z,8.70
2019-03-28T23:44:22.422Z,8.60
2019-03-28T23:46:50.974Z,8.60
2019-03-28T23:49:19.569Z,8.60
2019-03-28T23:51:48.682Z,8.60
2019-03-28T23:54:17.258Z,8.60
2019-03-28T23:56:45.833Z,8.50
2019-03-28T23:59:14.666Z,8.50
